createdAt,value
2019-02-09T00:02:15.368Z,10.23
2019-02-09T00:04:42.781Z,7.10
2019-02-09T00:07:10.192Z,10.23
2019-02-09T00:09:37.630Z,10.90
2019-02-09T00:12:05.033Z,8.23
2019-02-09T00:14:32.431Z,7.97
2019-02-09T00:16:59.861Z,6.80
2019-02-09T00:19:27.293Z,6.37
2019-02-09T00:21:54.699Z,8.03
2019-02-09T00:24:22.119Z,7.23
2019-02-09T00:26:49.519Z,5.30
2019-02-09T00:29:16.938Z,5.23
2019-02-09T00:31:44.358Z,3.90
2019-02-09T00:34:11.766Z,6.00
2019-02-09T00:36:39.200Z,6.47
2019-02-09T00:39:06.590Z,5.67
2019-02-09T00:41:34.010Z,5.93
2019-02-09T00:44:01.432Z,5.57
2019-02-09T00:46:28.844Z,6.50
2019-02-09T00:48:56.274Z,9.67
2019-02-09T00:51:23.679Z,5.13
2019-02-09T00:53:51.127Z,7.03
2019-02-09T00:56:18.525Z,6.67
2019-02-09T00:58:45.957Z,3.07
2019-02-09T01:01:13.352Z,6.33
2019-02-09T01:03:40.777Z,8.77
2019-02-09T01:06:08.180Z,7.60
2019-02-09T01:08:35.606Z,4.03
2019-02-09T01:11:03.027Z,7.03
2019-02-09T01:13:30.434Z,8.00
2019-02-09T01:15:57.858Z,5.53
2019-02-09T01:18:25.274Z,4.07
2019-02-09T01:20:52.706Z,4.20
2019-02-09T01:23:20.125Z,5.43
2019-02-09T01:25:47.534Z,4.43
2019-02-09T01:28:14.955Z,5.50
2019-02-09T01:30:42.351Z,5.27
2019-02-09T01:33:09.795Z,10.20
2019-02-09T01:35:37.203Z,9.27
2019-02-09T01:38:04.597Z,7.67
2019-02-09T01:40:32.023Z,8.50
2019-02-09T01:42:59.439Z,11.57
2019-02-09T01:45:29.688Z,9.33
2019-02-09T01:47:57.122Z,6.87
2019-02-09T01:50:24.532Z,9.47
2019-02-09T01:52:51.942Z,11.37
2019-02-09T01:55:19.362Z,12.57
2019-02-09T01:57:46.790Z,9.63
2019-02-09T02:00:16.906Z,10.13
2019-02-09T02:02:44.307Z,6.40
2019-02-09T02:05:11.752Z,14.23
2019-02-09T02:07:39.157Z,14.73
2019-02-09T02:10:06.569Z,11.80
2019-02-09T02:12:33.993Z,8.40
2019-02-09T02:15:01.391Z,11.10
2019-02-09T02:17:28.822Z,11.53
2019-02-09T02:19:56.227Z,12.50
2019-02-09T02:22:23.664Z,13.07
2019-02-09T02:24:51.062Z,7.80
2019-02-09T02:27:18.492Z,12.93
2019-02-09T02:29:45.898Z,12.00
2019-02-09T02:32:13.315Z,9.80
2019-02-09T02:34:40.721Z,15.13
2019-02-09T02:37:08.174Z,8.40
2019-02-09T02:39:35.569Z,13.27
2019-02-09T02:42:02.968Z,10.23
2019-02-09T02:44:30.402Z,11.53
2019-02-09T02:46:57.810Z,8.37
2019-02-09T02:49:25.220Z,12.37
2019-02-09T02:51:52.663Z,12.50
2019-02-09T02:54:20.064Z,14.40
2019-02-09T02:56:47.462Z,10.57
2019-02-09T02:59:14.894Z,14.00
2019-02-09T03:01:42.320Z,9.50
2019-02-09T03:04:09.718Z,8.67
2019-02-09T03:06:37.116Z,10.37
2019-02-09T03:09:04.557Z,10.07
2019-02-09T03:11:31.972Z,9.27
2019-02-09T03:13:59.398Z,10.43
2019-02-09T03:16:26.797Z,13.20
2019-02-09T03:18:54.254Z,15.60
2019-02-09T03:21:21.645Z,11.37
2019-02-09T03:23:49.075Z,11.63
2019-02-09T03:26:16.500Z,12.97
2019-02-09T03:28:43.934Z,11.23
2019-02-09T03:31:11.347Z,10.63
2019-02-09T03:33:38.809Z,12.50
2019-02-09T03:36:06.164Z,5.53
2019-02-09T03:38:33.564Z,11.60
2019-02-09T03:41:00.981Z,11.37
2019-02-09T03:43:28.374Z,21.40
2019-02-09T03:45:55.783Z,14.73
2019-02-09T03:48:23.228Z,16.23
2019-02-09T03:50:50.627Z,11.20
2019-02-09T03:53:18.051Z,21.47
2019-02-09T03:55:45.467Z,14.83
2019-02-09T03:58:12.885Z,10.63
2019-02-09T04:00:40.319Z,16.60
2019-02-09T04:03:07.714Z,17.17
2019-02-09T04:05:35.165Z,11.73
2019-02-09T04:08:02.563Z,10.57
2019-02-09T04:10:29.970Z,16.83
2019-02-09T04:12:57.403Z,13.23
2019-02-09T04:15:27.782Z,16.20
2019-02-09T04:17:55.192Z,16.03
2019-02-09T04:20:22.615Z,15.87
2019-02-09T04:22:50.040Z,13.87
2019-02-09T04:25:20.111Z,19.20
2019-02-09T04:27:47.535Z,18.90
2019-02-09T04:30:14.940Z,20.17
2019-02-09T04:32:42.373Z,17.40
2019-02-09T04:35:09.820Z,13.00
2019-02-09T04:37:37.207Z,15.30
2019-02-09T04:40:07.527Z,17.73
2019-02-09T04:42:34.963Z,19.07
2019-02-09T04:45:02.371Z,15.87
2019-02-09T04:47:29.815Z,13.83
2019-02-09T04:49:57.234Z,13.37
2019-02-09T04:52:24.636Z,17.03
2019-02-09T04:54:52.069Z,15.13
2019-02-09T04:57:19.489Z,17.87
2019-02-09T04:59:46.914Z,11.30
2019-02-09T05:02:14.341Z,13.03
2019-02-09T05:04:41.772Z,10.43
2019-02-09T05:07:09.178Z,12.57
2019-02-09T05:09:36.596Z,14.53
2019-02-09T05:12:03.992Z,13.77
2019-02-09T05:14:31.466Z,15.93
2019-02-09T05:16:58.887Z,11.07
2019-02-09T05:19:26.295Z,14.43
2019-02-09T05:21:53.731Z,17.53
2019-02-09T05:24:21.130Z,12.23
2019-02-09T05:26:48.601Z,12.47
2019-02-09T05:29:16.010Z,12.37
2019-02-09T05:31:43.452Z,15.20
2019-02-09T05:34:10.862Z,16.87
2019-02-09T05:36:38.281Z,14.03
2019-02-09T05:39:05.703Z,13.17
2019-02-09T05:41:33.112Z,12.00
2019-02-09T05:44:00.537Z,14.37
2019-02-09T05:46:27.939Z,11.07
2019-02-09T05:48:55.361Z,11.57
2019-02-09T05:51:22.775Z,8.97
2019-02-09T05:53:50.240Z,9.50
2019-02-09T05:56:17.654Z,16.67
2019-02-09T05:58:45.067Z,11.83
2019-02-09T06:01:12.520Z,12.50
2019-02-09T06:03:39.935Z,11.97
2019-02-09T06:06:07.347Z,10.80
2019-02-09T06:08:34.769Z,11.73
2019-02-09T06:11:02.168Z,12.57
2019-02-09T06:13:29.596Z,13.27
2019-02-09T06:15:56.995Z,9.50
2019-02-09T06:18:24.429Z,15.30
2019-02-09T06:20:51.847Z,6.87
2019-02-09T06:23:19.263Z,12.40
2019-02-09T06:25:46.695Z,11.27
2019-02-09T06:28:14.125Z,11.10
2019-02-09T06:30:41.562Z,17.10
2019-02-09T06:33:09.024Z,16.07
2019-02-09T06:35:36.463Z,13.53
2019-02-09T06:38:03.876Z,17.03
2019-02-09T06:40:31.316Z,11.80
2019-02-09T06:42:58.727Z,17.33
2019-02-09T06:45:26.154Z,18.47
2019-02-09T06:47:53.586Z,19.40
2019-02-09T06:50:21.015Z,14.30
2019-02-09T06:52:48.423Z,18.03
2019-02-09T06:55:15.827Z,13.77
2019-02-09T06:57:43.273Z,10.27
2019-02-09T07:00:16.661Z,15.10
2019-02-09T07:02:44.106Z,16.30
2019-02-09T07:05:11.514Z,13.47
2019-02-09T07:07:38.920Z,11.70
2019-02-09T07:10:06.343Z,15.87
2019-02-09T07:12:33.790Z,14.37
2019-02-09T07:15:01.222Z,16.17
2019-02-09T07:17:28.617Z,9.17
2019-02-09T07:19:56.079Z,18.00
2019-02-09T07:22:23.465Z,14.57
2019-02-09T07:24:50.881Z,14.53
2019-02-09T07:27:18.311Z,18.50
2019-02-09T07:29:45.713Z,19.70
2019-02-09T07:32:13.155Z,13.17
2019-02-09T07:34:40.570Z,16.00
2019-02-09T07:37:08.012Z,15.13
2019-02-09T07:39:35.425Z,14.27
2019-02-09T07:42:02.890Z,20.97
2019-02-09T07:44:30.282Z,13.87
2019-02-09T07:46:57.708Z,12.73
2019-02-09T07:49:25.118Z,12.70
2019-02-09T07:51:52.560Z,20.07
2019-02-09T07:54:19.962Z,14.20
2019-02-09T07:56:47.401Z,17.47
2019-02-09T07:59:14.795Z,15.90
2019-02-09T08:01:42.199Z,13.40
2019-02-09T08:04:09.647Z,12.93
2019-02-09T08:06:37.053Z,16.00
2019-02-09T08:09:04.459Z,15.30
2019-02-09T08:11:31.903Z,19.93
2019-02-09T08:13:59.302Z,21.70
2019-02-09T08:16:26.744Z,17.33
2019-02-09T08:18:54.162Z,16.67
2019-02-09T08:21:21.596Z,20.23
2019-02-09T08:23:48.988Z,15.07
2019-02-09T08:26:16.426Z,20.88
2019-02-09T08:28:43.828Z,17.37
2019-02-09T08:31:11.233Z,18.97
2019-02-09T08:33:38.679Z,16.17
2019-02-09T08:36:06.108Z,19.90
2019-02-09T08:38:33.524Z,20.90
2019-02-09T08:41:00.958Z,14.97
2019-02-09T08:43:28.375Z,16.17
2019-02-09T08:45:55.783Z,15.63
2019-02-09T08:48:23.202Z,16.73
2019-02-09T08:50:56.254Z,11.73
2019-02-09T08:53:23.680Z,14.67
2019-02-09T08:55:51.089Z,22.77
2019-02-09T08:58:18.505Z,19.33
2019-02-09T09:00:46.211Z,14.60
2019-02-09T09:03:13.616Z,20.17
2019-02-09T09:05:41.049Z,14.03
2019-02-09T09:08:08.475Z,15.47
2019-02-09T09:10:35.903Z,19.03
2019-02-09T09:13:03.314Z,17.40
2019-02-09T09:15:30.735Z,18.53
2019-02-09T09:17:58.160Z,20.67
2019-02-09T09:20:28.299Z,15.60
2019-02-09T09:22:55.724Z,12.17
2019-02-09T09:25:23.187Z,18.47
2019-02-09T09:27:50.583Z,13.90
2019-02-09T09:30:20.619Z,16.17
2019-02-09T09:32:48.032Z,19.00
2019-02-09T09:35:15.446Z,13.80
2019-02-09T09:37:42.861Z,12.30
2019-02-09T09:40:19.236Z,18.60
2019-02-09T09:42:46.649Z,23.10
2019-02-09T09:45:16.491Z,19.20
2019-02-09T09:47:43.914Z,18.10
2019-02-09T09:50:11.315Z,16.97
2019-02-09T09:52:38.750Z,19.43
2019-02-09T09:55:06.151Z,27.67
2019-02-09T09:57:33.558Z,20.40
2019-02-09T10:00:00.989Z,19.53
2019-02-09T10:02:36.308Z,18.37
2019-02-09T10:04:55.893Z,17.87
2019-02-09T10:07:23.302Z,18.07
2019-02-09T10:09:50.742Z,23.03
2019-02-09T10:12:18.160Z,23.27
2019-02-09T10:14:45.588Z,14.63
2019-02-09T10:17:12.994Z,13.73
2019-02-09T10:19:40.437Z,17.33
2019-02-09T10:22:07.863Z,13.13
2019-02-09T10:24:35.275Z,17.13
2019-02-09T10:27:02.737Z,13.07
2019-02-09T10:29:30.167Z,15.10
2019-02-09T10:31:57.603Z,15.27
2019-02-09T10:34:25.023Z,15.83
2019-02-09T10:36:52.452Z,15.47
2019-02-09T10:39:19.877Z,16.27
2019-02-09T10:41:47.339Z,17.50
2019-02-09T10:44:14.755Z,19.13
2019-02-09T10:46:43.837Z,20.23
2019-02-09T10:49:09.576Z,14.57
2019-02-09T10:51:37.011Z,15.17
2019-02-09T10:54:04.424Z,14.33
2019-02-09T10:56:31.869Z,15.60
2019-02-09T10:58:59.281Z,13.60
2019-02-09T11:01:26.714Z,14.33
2019-02-09T11:03:54.115Z,16.67
2019-02-09T11:06:21.551Z,19.70
2019-02-09T11:08:48.985Z,17.37
2019-02-09T11:11:16.401Z,16.17
2019-02-09T11:13:43.813Z,16.93
2019-02-09T11:16:11.221Z,17.30
2019-02-09T11:18:38.646Z,17.30
2019-02-09T11:21:06.052Z,15.40
2019-02-09T11:23:33.457Z,15.00
2019-02-09T11:26:00.901Z,21.53
2019-02-09T11:28:28.302Z,23.13
2019-02-09T11:30:55.844Z,20.53
2019-02-09T11:33:23.137Z,14.07
2019-02-09T11:35:50.572Z,12.83
2019-02-09T11:38:17.973Z,20.40
2019-02-09T11:40:45.379Z,12.33
2019-02-09T11:43:12.819Z,13.17
2019-02-09T11:45:40.256Z,14.80
2019-02-09T11:48:07.706Z,16.40
2019-02-09T11:50:35.118Z,15.00
2019-02-09T11:53:02.592Z,15.60
2019-02-09T11:55:30.025Z,15.07
2019-02-09T11:57:57.942Z,16.87
2019-02-09T12:00:36.916Z,16.23
2019-02-09T12:03:13.888Z,19.70
2019-02-09T12:05:31.710Z,16.87
2019-02-09T12:07:59.134Z,13.83
2019-02-09T12:10:26.541Z,19.47
2019-02-09T12:12:53.968Z,15.33
2019-02-09T12:15:24.501Z,10.07
2019-02-09T12:17:52.993Z,12.33
2019-02-09T12:20:19.377Z,14.27
2019-02-09T12:22:46.776Z,14.27
2019-02-09T12:25:14.208Z,12.33
2019-02-09T12:27:41.621Z,19.23
2019-02-09T12:30:24.305Z,16.03
2019-02-09T12:32:51.716Z,19.70
2019-02-09T12:35:19.142Z,19.87
2019-02-09T12:37:46.548Z,13.67
2019-02-09T12:40:13.975Z,13.40
2019-02-09T12:42:41.393Z,16.20
2019-02-09T12:45:17.283Z,13.97
2019-02-09T12:47:44.703Z,12.67
2019-02-09T12:50:12.108Z,12.50
2019-02-09T12:52:39.539Z,15.40
2019-02-09T12:55:06.949Z,13.93
2019-02-09T12:57:34.378Z,15.07
2019-02-09T13:00:01.790Z,14.67
2019-02-09T13:02:30.931Z,11.83
2019-02-09T13:04:56.649Z,12.73
2019-02-09T13:07:24.056Z,12.60
2019-02-09T13:09:51.524Z,12.17
2019-02-09T13:12:18.920Z,13.87
2019-02-09T13:14:46.346Z,13.27
2019-02-09T13:17:13.752Z,10.20
2019-02-09T13:19:41.197Z,15.23
2019-02-09T13:22:08.572Z,15.37
2019-02-09T13:24:36.059Z,10.43
2019-02-09T13:27:03.525Z,17.93
2019-02-09T13:29:30.959Z,15.57
2019-02-09T13:31:58.394Z,13.97
2019-02-09T13:34:25.804Z,14.57
2019-02-09T13:36:53.279Z,21.77
2019-02-09T13:39:20.682Z,23.90
2019-02-09T13:41:48.089Z,15.77
2019-02-09T13:44:15.546Z,17.53
2019-02-09T13:46:42.979Z,16.70
2019-02-09T13:49:10.472Z,16.07
2019-02-09T13:51:37.840Z,15.27
2019-02-09T13:54:05.234Z,16.43
2019-02-09T13:56:32.731Z,15.50
2019-02-09T13:59:00.128Z,17.73
2019-02-09T14:01:27.538Z,14.90
2019-02-09T14:03:55.020Z,15.30
2019-02-09T14:06:22.420Z,14.00
2019-02-09T14:08:49.860Z,10.70
2019-02-09T14:11:17.272Z,12.33
2019-02-09T14:13:44.695Z,13.23
2019-02-09T14:16:12.178Z,15.53
2019-02-09T14:18:39.583Z,13.67
2019-02-09T14:21:07.019Z,12.60
2019-02-09T14:23:34.421Z,12.73
2019-02-09T14:26:01.849Z,18.17
2019-02-09T14:28:29.274Z,13.37
2019-02-09T14:30:56.679Z,19.10
2019-02-09T14:33:24.162Z,14.00
2019-02-09T14:35:51.580Z,16.27
2019-02-09T14:38:19.043Z,18.93
2019-02-09T14:40:46.491Z,18.57
2019-02-09T14:43:13.891Z,19.43
2019-02-09T14:45:41.362Z,15.70
2019-02-09T14:48:08.762Z,15.80
2019-02-09T14:50:36.232Z,10.43
2019-02-09T14:53:03.602Z,14.57
2019-02-09T14:55:31.034Z,14.67
2019-02-09T14:57:58.471Z,11.70
2019-02-09T15:00:25.871Z,16.77
2019-02-09T15:02:54.086Z,12.20
2019-02-09T15:05:20.757Z,14.37
2019-02-09T15:07:48.165Z,11.13
2019-02-09T15:10:18.546Z,17.83
2019-02-09T15:12:45.944Z,12.93
2019-02-09T15:15:19.102Z,13.30
2019-02-09T15:17:46.574Z,16.47
2019-02-09T15:20:13.984Z,20.40
2019-02-09T15:22:41.428Z,16.27
2019-02-09T15:25:08.829Z,16.90
2019-02-09T15:27:36.242Z,11.67
2019-02-09T15:30:03.680Z,16.50
2019-02-09T15:32:31.084Z,12.07
2019-02-09T15:34:58.523Z,16.53
2019-02-09T15:37:25.951Z,12.27
2019-02-09T15:39:53.449Z,14.83
2019-02-09T15:42:20.884Z,12.33
2019-02-09T15:44:48.311Z,12.87
2019-02-09T15:47:15.758Z,18.30
2019-02-09T15:49:43.166Z,10.73
2019-02-09T15:52:10.579Z,16.30
2019-02-09T15:54:38.001Z,17.73
2019-02-09T15:57:05.462Z,11.53
2019-02-09T15:59:32.914Z,14.50
2019-02-09T16:02:00.351Z,20.00
2019-02-09T16:04:27.815Z,14.93
2019-02-09T16:06:55.259Z,13.07
2019-02-09T16:09:22.679Z,14.17
2019-02-09T16:11:50.387Z,17.63
2019-02-09T16:14:17.818Z,11.47
2019-02-09T16:16:45.224Z,14.43
2019-02-09T16:19:12.684Z,17.23
2019-02-09T16:21:40.121Z,20.50
2019-02-09T16:24:07.531Z,16.60
2019-02-09T16:26:35.011Z,18.87
2019-02-09T16:29:02.412Z,14.77
2019-02-09T16:31:29.823Z,18.33
2019-02-09T16:33:57.292Z,17.97
2019-02-09T16:36:24.754Z,12.90
2019-02-09T16:38:52.176Z,13.17
2019-02-09T16:41:19.643Z,11.47
2019-02-09T16:43:47.117Z,17.97
2019-02-09T16:46:14.554Z,16.10
2019-02-09T16:48:41.995Z,16.43
2019-02-09T16:51:09.452Z,15.33
2019-02-09T16:53:36.901Z,19.17
2019-02-09T16:56:04.312Z,16.00
2019-02-09T16:58:31.752Z,15.30
2019-02-09T17:00:59.162Z,17.47
2019-02-09T17:03:26.604Z,20.67
2019-02-09T17:05:54.042Z,14.77
2019-02-09T17:08:21.601Z,13.13
2019-02-09T17:10:49.031Z,12.40
2019-02-09T17:13:16.460Z,14.40
2019-02-09T17:15:43.955Z,11.27
2019-02-09T17:18:11.395Z,14.67
2019-02-09T17:20:38.832Z,14.13
2019-02-09T17:23:06.265Z,8.67
2019-02-09T17:25:33.695Z,6.07
2019-02-09T17:28:01.121Z,7.13
2019-02-09T17:30:28.846Z,11.93
2019-02-09T17:32:56.283Z,6.93
2019-02-09T17:35:23.801Z,6.33
2019-02-09T17:37:51.224Z,9.37
2019-02-09T17:40:30.508Z,10.87
2019-02-09T17:42:57.919Z,15.13
2019-02-09T17:45:37.140Z,12.03
2019-02-09T17:48:04.513Z,10.60
2019-02-09T17:50:32.021Z,13.73
2019-02-09T17:53:00.361Z,12.97
2019-02-09T17:55:26.899Z,14.90
2019-02-09T17:57:54.351Z,16.53
2019-02-09T18:00:24.883Z,14.47
2019-02-09T18:02:52.301Z,14.27
2019-02-09T18:05:19.788Z,20.20
2019-02-09T18:07:47.228Z,18.73
2019-02-09T18:10:14.620Z,22.90
2019-02-09T18:12:42.089Z,24.57
2019-02-09T18:15:09.510Z,22.60
2019-02-09T18:17:36.981Z,19.70
2019-02-09T18:20:04.517Z,27.33
2019-02-09T18:22:31.984Z,18.60
2019-02-09T18:24:59.426Z,17.37
2019-02-09T18:27:27.271Z,16.87
2019-02-09T18:29:54.735Z,16.07
2019-02-09T18:32:22.167Z,15.73
2019-02-09T18:34:55.991Z,22.27
2019-02-09T18:37:17.017Z,15.00
2019-02-09T18:39:44.479Z,16.50
2019-02-09T18:42:11.962Z,15.60
2019-02-09T18:44:39.391Z,15.57
2019-02-09T18:47:06.835Z,18.30
2019-02-09T18:49:34.247Z,16.37
2019-02-09T18:52:01.729Z,15.63
2019-02-09T18:54:29.148Z,14.50
2019-02-09T18:56:56.649Z,18.57
2019-02-09T18:59:24.079Z,21.67
2019-02-09T19:01:51.601Z,18.87
2019-02-09T19:04:19.015Z,16.97
2019-02-09T19:06:46.453Z,14.07
2019-02-09T19:09:13.921Z,20.37
2019-02-09T19:11:41.371Z,13.20
2019-02-09T19:14:08.771Z,19.63
2019-02-09T19:16:36.189Z,15.73
2019-02-09T19:19:03.776Z,16.63
2019-02-09T19:21:31.152Z,18.43
2019-02-09T19:23:58.592Z,17.57
2019-02-09T19:26:26.010Z,14.47
2019-02-09T19:28:53.425Z,19.37
2019-02-09T19:31:21.051Z,16.90
2019-02-09T19:33:48.466Z,17.90
2019-02-09T19:36:15.948Z,17.87
2019-02-09T19:38:43.350Z,21.17
2019-02-09T19:41:10.765Z,17.97
2019-02-09T19:43:38.209Z,21.53
2019-02-09T19:46:05.662Z,17.77
2019-02-09T19:48:33.086Z,17.90
2019-02-09T19:51:00.491Z,16.43
2019-02-09T19:53:27.943Z,19.87
2019-02-09T19:55:55.351Z,17.53
2019-02-09T19:58:22.820Z,12.33
2019-02-09T20:00:50.264Z,14.97
2019-02-09T20:03:17.745Z,14.93
2019-02-09T20:05:45.178Z,24.20
2019-02-09T20:08:12.657Z,16.07
2019-02-09T20:10:40.072Z,18.70
2019-02-09T20:13:07.553Z,17.63
2019-02-09T20:15:34.966Z,15.70
2019-02-09T20:18:02.450Z,15.47
2019-02-09T20:20:29.893Z,14.63
2019-02-09T20:22:57.336Z,15.90
2019-02-09T20:25:27.484Z,16.90
2019-02-09T20:27:54.919Z,13.60
2019-02-09T20:30:25.314Z,12.97
2019-02-09T20:32:52.713Z,15.23
2019-02-09T20:35:27.348Z,12.87
2019-02-09T20:37:47.574Z,19.73
2019-02-09T20:40:23.546Z,21.47
2019-02-09T20:42:51.224Z,16.83
2019-02-09T20:45:18.676Z,12.17
2019-02-09T20:47:48.650Z,17.90
2019-02-09T20:50:13.922Z,18.10
2019-02-09T20:52:41.394Z,13.40
2019-02-09T20:55:08.831Z,14.27
2019-02-09T20:57:36.308Z,17.07
2019-02-09T21:00:03.756Z,12.17
2019-02-09T21:02:31.287Z,14.13
2019-02-09T21:04:58.696Z,15.43
2019-02-09T21:07:26.141Z,19.50
2019-02-09T21:09:53.543Z,16.60
2019-02-09T21:12:21.002Z,18.20
2019-02-09T21:14:48.431Z,19.00
2019-02-09T21:17:15.933Z,15.00
2019-02-09T21:19:43.341Z,18.73
2019-02-09T21:22:10.841Z,15.70
2019-02-09T21:24:38.291Z,16.00
2019-02-09T21:27:05.793Z,19.87
2019-02-09T21:29:33.226Z,19.07
2019-02-09T21:32:00.622Z,14.57
2019-02-09T21:34:28.053Z,23.23
2019-02-09T21:36:55.472Z,23.07
2019-02-09T21:39:22.920Z,15.70
2019-02-09T21:41:50.332Z,22.97
2019-02-09T21:44:17.826Z,19.53
2019-02-09T21:46:45.296Z,26.50
2019-02-09T21:49:12.704Z,15.73
2019-02-09T21:51:40.166Z,15.30
2019-02-09T21:54:07.617Z,18.30
2019-02-09T21:56:35.030Z,23.47
2019-02-09T21:59:02.452Z,13.77
2019-02-09T22:01:29.900Z,22.33
2019-02-09T22:03:57.303Z,15.43
2019-02-09T22:06:24.712Z,21.97
2019-02-09T22:08:52.165Z,18.67
2019-02-09T22:11:19.651Z,20.23
2019-02-09T22:13:47.039Z,22.10
2019-02-09T22:16:14.486Z,16.83
2019-02-09T22:18:42.035Z,23.60
2019-02-09T22:21:09.322Z,20.10
2019-02-09T22:23:36.811Z,18.03
2019-02-09T22:26:04.233Z,24.20
2019-02-09T22:28:31.622Z,20.97
2019-02-09T22:30:59.054Z,19.97
2019-02-09T22:33:26.525Z,22.27
2019-02-09T22:35:59.807Z,17.33
2019-02-09T22:38:21.438Z,16.13
2019-02-09T22:40:48.835Z,23.00
2019-02-09T22:43:16.309Z,19.77
2019-02-09T22:45:43.728Z,19.10
2019-02-09T22:48:11.140Z,20.53
2019-02-09T22:50:41.141Z,20.43
2019-02-09T22:53:08.548Z,22.67
2019-02-09T22:55:35.981Z,21.53
2019-02-09T22:58:03.416Z,24.80
2019-02-09T23:00:46.242Z,19.13
2019-02-09T23:03:13.692Z,21.10
2019-02-09T23:05:46.656Z,23.30
2019-02-09T23:08:14.048Z,17.60
2019-02-09T23:10:41.451Z,20.73
2019-02-09T23:13:08.882Z,22.00
2019-02-09T23:15:36.291Z,21.57
2019-02-09T23:18:03.760Z,17.53
2019-02-09T23:20:31.162Z,22.50
2019-02-09T23:22:58.601Z,19.57
2019-02-09T23:25:25.996Z,16.73
2019-02-09T23:27:53.441Z,23.97
2019-02-09T23:30:20.850Z,18.33
2019-02-09T23:32:48.283Z,24.13
2019-02-09T23:35:15.694Z,26.90
2019-02-09T23:37:43.165Z,29.57
2019-02-09T23:40:10.556Z,25.93
2019-02-09T23:42:37.961Z,22.33
2019-02-09T23:45:05.393Z,23.90
2019-02-09T23:47:32.821Z,24.03
2019-02-09T23:50:00.278Z,29.97
2019-02-09T23:52:27.673Z,26.40
2019-02-09T23:54:55.101Z,15.03
2019-02-09T23:57:22.522Z,18.47
2019-02-09T23:59:49.928Z,22.00
